createdAt,value
2023-02-08T00:02:19.423Z,11.75
2023-02-08T00:05:21.561Z,15.55
2023-02-08T00:08:23.698Z,13.05
2023-02-08T00:11:25.826Z,9.67
2023-02-08T00:14:27.902Z,8.95
2023-02-08T00:17:29.962Z,8.70
2023-02-08T00:20:31.950Z,12.27
2023-02-08T00:23:33.963Z,9.15
2023-02-08T00:26:35.975Z,11.98
2023-02-08T00:29:38.161Z,14.88
2023-02-08T00:32:40.131Z,14.88
2023-02-08T00:35:42.564Z,13.98
2023-02-08T00:38:44.575Z,10.93
2023-02-08T00:41:46.910Z,11.93
2023-02-08T00:44:48.904Z,10.85
2023-02-08T00:47:50.931Z,11.18
2023-02-08T00:50:59.143Z,10.93
2023-02-08T00:54:01.151Z,12.20
2023-02-08T00:57:03.159Z,6.88
2023-02-08T01:00:05.922Z,8.88
2023-02-08T01:03:07.906Z,7.75
2023-02-08T01:06:11.620Z,10.45
2023-02-08T01:09:13.654Z,12.00
2023-02-08T01:12:16.946Z,11.47
2023-02-08T01:15:19.022Z,7.95
2023-02-08T01:18:21.064Z,8.85
2023-02-08T01:21:24.351Z,5.13
2023-02-08T01:24:26.444Z,8.88
2023-02-08T01:27:28.804Z,10.13
2023-02-08T01:30:30.821Z,11.57
2023-02-08T01:33:32.881Z,9.90
2023-02-08T01:36:35.751Z,4.45
2023-02-08T01:39:37.827Z,9.75
2023-02-08T01:42:39.852Z,7.13
2023-02-08T01:45:41.858Z,5.40
2023-02-08T01:48:44.015Z,10.30
2023-02-08T01:52:06.540Z,10.27
2023-02-08T01:55:11.974Z,9.13
2023-02-08T01:58:14.625Z,5.90
2023-02-08T02:01:17.574Z,8.70
2023-02-08T02:04:20.012Z,7.80
2023-02-08T02:07:23.022Z,10.73
2023-02-08T02:10:29.498Z,8.82
2023-02-08T02:13:32.392Z,5.30
2023-02-08T02:16:34.482Z,9.45
2023-02-08T02:19:36.556Z,5.80
2023-02-08T02:22:50.522Z,4.97
2023-02-08T02:25:52.537Z,9.27
2023-02-08T02:29:03.640Z,7.65
2023-02-08T02:32:22.741Z,6.53
2023-02-08T02:35:30.011Z,8.68
2023-02-08T02:38:52.625Z,6.05
2023-02-08T02:42:20.574Z,5.28
2023-02-08T02:45:22.533Z,5.37
2023-02-08T02:48:27.554Z,5.10
2023-02-08T02:51:34.438Z,5.30
2023-02-08T02:54:42.270Z,3.93
2023-02-08T02:57:46.364Z,5.93
2023-02-08T03:00:56.145Z,8.75
2023-02-08T03:03:58.677Z,8.35
2023-02-08T03:07:06.627Z,8.13
2023-02-08T03:10:19.608Z,6.82
2023-02-08T03:13:40.495Z,6.85
2023-02-08T03:16:57.634Z,7.63
2023-02-08T03:20:04.944Z,4.38
2023-02-08T03:23:19.091Z,5.53
2023-02-08T03:26:31.788Z,5.93
2023-02-08T03:29:33.767Z,6.72
2023-02-08T03:32:35.704Z,6.22
2023-02-08T03:35:40.364Z,6.88
2023-02-08T03:38:44.070Z,6.85
2023-02-08T03:41:47.261Z,8.52
2023-02-08T03:44:54.538Z,7.47
2023-02-08T03:47:57.713Z,9.00
2023-02-08T03:51:01.793Z,9.88
2023-02-08T03:54:04.927Z,3.08
2023-02-08T03:57:12.138Z,10.33
2023-02-08T04:00:16.229Z,8.73
2023-02-08T04:03:21.002Z,6.60
2023-02-08T04:06:23.448Z,8.65
2023-02-08T04:09:25.618Z,10.05
2023-02-08T04:12:27.638Z,10.98
2023-02-08T04:15:29.698Z,7.10
2023-02-08T04:18:31.784Z,7.90
2023-02-08T04:21:33.812Z,10.75
2023-02-08T04:24:35.850Z,9.10
2023-02-08T04:27:38.110Z,5.10
2023-02-08T04:30:40.497Z,5.13
2023-02-08T04:33:42.708Z,4.65
2023-02-08T04:36:44.745Z,6.18
2023-02-08T04:39:46.840Z,7.18
2023-02-08T04:42:48.832Z,5.35
2023-02-08T04:45:51.314Z,5.68
2023-02-08T04:48:53.363Z,8.33
2023-02-08T04:51:55.333Z,7.20
2023-02-08T04:54:57.314Z,6.35
2023-02-08T04:57:59.303Z,7.37
2023-02-08T05:01:01.303Z,4.82
2023-02-08T05:04:03.372Z,8.23
2023-02-08T05:07:05.358Z,7.20
2023-02-08T05:10:07.641Z,4.30
2023-02-08T05:13:09.677Z,6.45
2023-02-08T05:16:11.646Z,6.45
2023-02-08T05:19:13.784Z,5.67
2023-02-08T05:22:16.374Z,7.55
2023-02-08T05:25:18.507Z,8.00
2023-02-08T05:28:20.561Z,8.13
2023-02-08T05:31:24.036Z,9.07
2023-02-08T05:34:26.112Z,8.82
2023-02-08T05:37:28.066Z,8.27
2023-02-08T05:40:30.063Z,8.50
2023-02-08T05:43:32.020Z,8.73
2023-02-08T05:46:35.937Z,7.85
2023-02-08T05:49:39.086Z,9.27
2023-02-08T05:52:41.391Z,12.57
2023-02-08T05:55:46.983Z,11.75
2023-02-08T05:58:48.986Z,11.77
2023-02-08T06:01:50.956Z,11.68
2023-02-08T06:04:52.937Z,12.52
2023-02-08T06:07:54.933Z,12.15
2023-02-08T06:10:57.059Z,11.18
2023-02-08T06:13:59.059Z,12.50
2023-02-08T06:17:01.144Z,12.10
2023-02-08T06:20:03.341Z,11.63
2023-02-08T06:23:05.500Z,11.93
2023-02-08T06:26:07.844Z,10.48
2023-02-08T06:29:10.227Z,9.57
2023-02-08T06:32:12.454Z,10.35
2023-02-08T06:35:14.622Z,12.13
2023-02-08T06:38:16.686Z,9.75
2023-02-08T06:41:18.894Z,8.90
2023-02-08T06:44:20.964Z,8.60
2023-02-08T06:47:23.736Z,9.95
2023-02-08T06:50:25.947Z,9.27
2023-02-08T06:53:28.043Z,8.75
2023-02-08T06:56:30.089Z,7.82
2023-02-08T06:59:32.334Z,9.50
2023-02-08T07:02:34.696Z,9.90
2023-02-08T07:05:37.029Z,8.18
2023-02-08T07:08:39.282Z,10.30
2023-02-08T07:11:41.360Z,11.32
2023-02-08T07:14:43.814Z,13.98
2023-02-08T07:17:45.863Z,12.32
2023-02-08T07:20:49.102Z,11.47
2023-02-08T07:23:51.142Z,12.68
2023-02-08T07:26:53.294Z,11.65
2023-02-08T07:29:55.571Z,10.53
2023-02-08T07:32:57.766Z,11.95
2023-02-08T07:35:59.949Z,11.85
2023-02-08T07:39:03.012Z,11.73
2023-02-08T07:42:06.868Z,12.45
2023-02-08T07:45:19.264Z,11.32
2023-02-08T07:48:21.900Z,11.40
2023-02-08T07:51:24.141Z,11.40
2023-02-08T07:54:26.357Z,12.32
2023-02-08T07:57:28.785Z,10.98
2023-02-08T08:00:30.961Z,11.30
2023-02-08T08:03:33.098Z,11.82
2023-02-08T08:06:35.170Z,11.85
2023-02-08T08:09:37.429Z,12.70
2023-02-08T08:12:39.518Z,11.93
2023-02-08T08:15:41.867Z,12.90
2023-02-08T08:18:44.326Z,12.90
2023-02-08T08:21:46.411Z,11.80
2023-02-08T08:24:48.543Z,11.32
2023-02-08T08:27:50.635Z,12.05
2023-02-08T08:30:53.001Z,11.60
2023-02-08T08:33:55.571Z,13.40
2023-02-08T08:36:58.103Z,12.98
2023-02-08T08:40:00.987Z,11.52
2023-02-08T08:43:03.260Z,11.95
2023-02-08T08:46:08.841Z,11.35
2023-02-08T08:49:11.568Z,12.05
2023-02-08T08:52:14.027Z,11.27
2023-02-08T08:55:16.539Z,12.57
2023-02-08T08:58:18.879Z,11.77
2023-02-08T09:01:21.032Z,13.43
2023-02-08T09:04:23.115Z,12.95
2023-02-08T09:07:25.218Z,12.25
2023-02-08T09:10:27.495Z,12.45
2023-02-08T09:13:29.651Z,12.27
2023-02-08T09:16:32.219Z,11.02
2023-02-08T09:19:34.239Z,10.70
2023-02-08T09:22:36.336Z,12.43
2023-02-08T09:25:38.569Z,13.45
2023-02-08T09:28:40.653Z,11.68
2023-02-08T09:31:43.041Z,11.47
2023-02-08T09:34:45.247Z,11.23
2023-02-08T09:37:47.502Z,15.60
2023-02-08T09:40:55.267Z,12.15
2023-02-08T09:44:12.965Z,9.23
2023-02-08T09:47:21.037Z,12.18
2023-02-08T09:50:40.125Z,13.07
2023-02-08T09:53:44.741Z,12.35
2023-02-08T09:56:47.634Z,11.70
2023-02-08T10:00:02.070Z,11.52
2023-02-08T10:03:17.847Z,10.82
2023-02-08T10:06:20.451Z,13.27
2023-02-08T10:09:25.551Z,11.23
2023-02-08T10:12:51.079Z,13.18
2023-02-08T10:16:05.856Z,11.18
2023-02-08T10:19:14.657Z,12.83
2023-02-08T10:22:16.735Z,12.43
2023-02-08T10:25:37.859Z,11.50
2023-02-08T10:28:46.817Z,12.20
2023-02-08T10:32:06.356Z,9.87
2023-02-08T10:35:24.719Z,10.88
2023-02-08T10:38:45.762Z,11.65
2023-02-08T10:41:48.817Z,11.05
2023-02-08T10:44:50.779Z,11.73
2023-02-08T10:47:58.572Z,11.77
2023-02-08T10:51:00.673Z,10.75
2023-02-08T10:54:03.085Z,11.07
2023-02-08T10:57:09.697Z,10.80
2023-02-08T11:00:17.929Z,12.50
2023-02-08T11:03:24.650Z,10.90
2023-02-08T11:06:27.553Z,11.32
2023-02-08T11:09:31.460Z,12.07
2023-02-08T11:12:33.512Z,9.73
2023-02-08T11:15:56.357Z,11.00
2023-02-08T11:18:59.287Z,11.25
2023-02-08T11:22:02.666Z,10.15
2023-02-08T11:25:07.741Z,11.33
2023-02-08T11:28:22.643Z,9.85
2023-02-08T11:31:25.973Z,12.05
2023-02-08T11:34:28.752Z,10.90
2023-02-08T11:37:31.004Z,10.53
2023-02-08T11:40:37.285Z,12.57
2023-02-08T11:43:39.308Z,10.85
2023-02-08T11:46:48.421Z,11.40
2023-02-08T11:49:54.947Z,10.32
2023-02-08T11:53:03.522Z,9.83
2023-02-08T11:56:07.713Z,11.02
2023-02-08T11:59:22.873Z,11.38
2023-02-08T12:02:28.613Z,10.38
2023-02-08T12:05:43.553Z,9.70
2023-02-08T12:08:48.930Z,9.88
2023-02-08T12:12:14.018Z,13.35
2023-02-08T12:15:40.154Z,13.70
2023-02-08T12:19:02.861Z,9.90
2023-02-08T12:22:17.216Z,9.82
2023-02-08T12:25:42.746Z,11.45
2023-02-08T12:29:11.197Z,11.52
2023-02-08T12:32:23.695Z,9.37
2023-02-08T12:35:57.598Z,10.35
2023-02-08T12:39:26.255Z,11.18
2023-02-08T12:42:39.449Z,9.73
2023-02-08T12:45:44.804Z,10.30
2023-02-08T12:48:53.309Z,10.35
2023-02-08T12:51:55.292Z,11.57
2023-02-08T12:55:00.761Z,11.55
2023-02-08T12:58:13.356Z,10.45
2023-02-08T13:01:25.770Z,9.50
2023-02-08T13:04:31.067Z,10.60
2023-02-08T13:07:34.721Z,11.57
2023-02-08T13:10:39.555Z,9.80
2023-02-08T13:13:43.476Z,10.75
2023-02-08T13:16:46.462Z,13.03
2023-02-08T13:19:59.802Z,12.43
2023-02-08T13:23:19.547Z,12.13
2023-02-08T13:26:26.603Z,13.45
2023-02-08T13:29:30.023Z,11.75
2023-02-08T13:32:45.176Z,11.20
2023-02-08T13:35:50.211Z,10.95
2023-02-08T13:38:52.843Z,11.55
2023-02-08T13:41:56.655Z,13.10
2023-02-08T13:44:59.234Z,11.13
2023-02-08T13:48:03.105Z,9.93
2023-02-08T13:51:06.660Z,9.52
2023-02-08T13:54:12.813Z,9.63
2023-02-08T13:57:33.940Z,8.80
2023-02-08T14:00:37.131Z,10.43
2023-02-08T14:03:39.209Z,10.13
2023-02-08T14:06:44.134Z,9.50
2023-02-08T14:10:04.978Z,12.68
2023-02-08T14:13:19.169Z,12.52
2023-02-08T14:16:27.472Z,11.63
2023-02-08T14:19:30.652Z,9.82
2023-02-08T14:22:37.526Z,9.60
2023-02-08T14:25:41.717Z,7.50
2023-02-08T14:28:45.480Z,7.50
2023-02-08T14:31:47.961Z,7.97
2023-02-08T14:34:58.546Z,10.40
2023-02-08T14:38:19.022Z,8.57
2023-02-08T14:41:39.826Z,10.45
2023-02-08T14:44:43.026Z,10.18
2023-02-08T14:47:48.288Z,9.10
2023-02-08T14:51:09.123Z,10.13
2023-02-08T14:54:31.477Z,8.30
2023-02-08T14:57:35.423Z,9.40
2023-02-08T15:00:38.480Z,11.32
2023-02-08T15:03:41.524Z,11.55
2023-02-08T15:06:53.862Z,11.27
2023-02-08T15:09:56.980Z,10.60
2023-02-08T15:13:02.487Z,11.77
2023-02-08T15:16:04.995Z,13.35
2023-02-08T15:19:10.121Z,11.87
2023-02-08T15:22:16.866Z,10.20
2023-02-08T15:25:30.210Z,10.00
2023-02-08T15:28:34.542Z,9.50
2023-02-08T15:31:36.664Z,12.32
2023-02-08T15:34:42.663Z,14.75
2023-02-08T15:37:44.809Z,13.50
2023-02-08T15:41:04.572Z,14.35
2023-02-08T15:44:21.350Z,14.85
2023-02-08T15:47:28.628Z,15.95
2023-02-08T15:50:31.287Z,15.43
2023-02-08T15:53:33.413Z,17.10
2023-02-08T15:56:41.336Z,14.68
2023-02-08T15:59:45.548Z,18.37
2023-02-08T16:02:55.781Z,19.17
2023-02-08T16:05:59.443Z,17.23
2023-02-08T16:09:03.062Z,19.10
2023-02-08T16:12:06.274Z,17.92
2023-02-08T16:15:28.500Z,18.38
2023-02-08T16:18:32.740Z,17.58
2023-02-08T16:21:38.390Z,15.33
2023-02-08T16:24:40.486Z,13.98
2023-02-08T16:27:47.165Z,13.55
2023-02-08T16:30:49.345Z,12.97
2023-02-08T16:33:57.379Z,12.98
2023-02-08T16:36:59.871Z,11.55
2023-02-08T16:40:08.312Z,9.68
2023-02-08T16:43:16.669Z,9.00
2023-02-08T16:46:21.544Z,9.40
2023-02-08T16:49:23.865Z,9.68
2023-02-08T16:52:25.956Z,10.00
2023-02-08T16:55:29.971Z,10.75
2023-02-08T16:58:32.005Z,10.82
2023-02-08T17:01:34.386Z,9.10
2023-02-08T17:04:36.433Z,12.55
2023-02-08T17:07:38.501Z,14.70
2023-02-08T17:10:40.615Z,14.38
2023-02-08T17:13:42.734Z,13.27
2023-02-08T17:16:44.818Z,13.48
2023-02-08T17:19:47.155Z,15.18
2023-02-08T17:22:49.844Z,14.63
2023-02-08T17:25:52.213Z,13.10
2023-02-08T17:28:55.232Z,14.32
2023-02-08T17:31:57.353Z,19.40
2023-02-08T17:35:00.645Z,16.58
2023-02-08T17:38:03.382Z,17.95
2023-02-08T17:41:11.927Z,17.23
2023-02-08T17:44:15.238Z,19.88
2023-02-08T17:47:17.265Z,18.95
2023-02-08T17:50:19.465Z,16.85
2023-02-08T17:53:21.523Z,15.10
2023-02-08T17:56:24.362Z,20.02
2023-02-08T17:59:27.522Z,14.40
2023-02-08T18:02:29.653Z,15.27
2023-02-08T18:05:31.850Z,18.45
2023-02-08T18:08:34.767Z,22.73
2023-02-08T18:11:37.975Z,19.35
2023-02-08T18:14:40.443Z,20.35
2023-02-08T18:17:42.759Z,22.90
2023-02-08T18:20:45.498Z,22.10
2023-02-08T18:23:48.076Z,23.30
2023-02-08T18:26:50.057Z,24.13
2023-02-08T18:29:52.091Z,22.05
2023-02-08T18:32:54.336Z,25.37
2023-02-08T18:35:56.436Z,24.45
2023-02-08T18:38:58.777Z,23.20
2023-02-08T18:42:00.981Z,19.42
2023-02-08T18:45:04.135Z,17.40
2023-02-08T18:48:06.219Z,14.80
2023-02-08T18:51:09.613Z,14.98
2023-02-08T18:54:16.047Z,13.53
2023-02-08T18:57:18.499Z,18.40
2023-02-08T19:00:20.659Z,16.20
2023-02-08T19:03:22.814Z,17.10
2023-02-08T19:06:26.576Z,15.95
2023-02-08T19:09:28.596Z,17.67
2023-02-08T19:12:30.742Z,16.38
2023-02-08T19:15:34.688Z,16.65
2023-02-08T19:18:36.687Z,15.23
2023-02-08T19:21:39.276Z,16.83
2023-02-08T19:24:41.356Z,20.37
2023-02-08T19:27:43.372Z,20.33
2023-02-08T19:30:45.565Z,20.17
2023-02-08T19:33:49.258Z,20.77
2023-02-08T19:36:52.124Z,20.13
2023-02-08T19:39:54.155Z,24.25
2023-02-08T19:42:56.258Z,28.95
2023-02-08T19:45:58.709Z,29.05
2023-02-08T19:49:01.770Z,32.10
2023-02-08T19:52:03.845Z,29.05
2023-02-08T19:55:05.987Z,25.10
2023-02-08T19:58:08.348Z,17.15
2023-02-08T20:01:12.288Z,13.88
2023-02-08T20:04:14.784Z,14.37
2023-02-08T20:07:16.831Z,13.63
2023-02-08T20:10:18.933Z,13.98
2023-02-08T20:13:21.442Z,14.57
2023-02-08T20:16:24.479Z,14.70
2023-02-08T20:19:26.834Z,15.80
2023-02-08T20:22:28.887Z,12.77
2023-02-08T20:25:31.073Z,14.17
2023-02-08T20:28:33.387Z,14.05
2023-02-08T20:31:36.453Z,12.52
2023-02-08T20:34:42.700Z,15.87
2023-02-08T20:37:49.283Z,14.07
2023-02-08T20:40:51.290Z,11.38
2023-02-08T20:43:53.959Z,13.73
2023-02-08T20:46:55.965Z,13.98
2023-02-08T20:49:59.597Z,13.57
2023-02-08T20:53:03.140Z,13.13
2023-02-08T20:56:09.441Z,9.03
2023-02-08T20:59:13.858Z,12.75
2023-02-08T21:02:18.018Z,11.55
2023-02-08T21:05:20.051Z,11.53
2023-02-08T21:08:22.092Z,10.63
2023-02-08T21:11:25.423Z,12.00
2023-02-08T21:14:27.510Z,10.68
2023-02-08T21:17:30.663Z,13.45
2023-02-08T21:20:32.776Z,12.55
2023-02-08T21:23:35.278Z,9.30
2023-02-08T21:26:37.372Z,12.53
2023-02-08T21:29:39.352Z,14.38
2023-02-08T21:32:43.126Z,14.82
2023-02-08T21:35:45.092Z,15.00
2023-02-08T21:38:47.497Z,14.63
2023-02-08T21:41:49.537Z,16.67
2023-02-08T21:44:51.654Z,20.00
2023-02-08T21:47:53.647Z,14.98
2023-02-08T21:51:14.302Z,20.25
2023-02-08T21:54:37.178Z,16.98
2023-02-08T21:57:41.100Z,16.37
2023-02-08T22:00:43.335Z,13.13
2023-02-08T22:03:45.535Z,13.82
2023-02-08T22:06:50.465Z,14.27
2023-02-08T22:09:52.580Z,14.40
2023-02-08T22:12:55.293Z,11.73
2023-02-08T22:15:58.896Z,14.73
2023-02-08T22:19:01.041Z,15.18
2023-02-08T22:22:03.071Z,14.70
2023-02-08T22:25:05.263Z,16.35
2023-02-08T22:28:08.389Z,15.03
2023-02-08T22:31:12.747Z,15.60
2023-02-08T22:34:14.784Z,16.30
2023-02-08T22:37:16.876Z,11.80
2023-02-08T22:40:18.918Z,12.25
2023-02-08T22:43:21.014Z,11.02
2023-02-08T22:46:23.174Z,17.02
2023-02-08T22:49:25.271Z,12.25
2023-02-08T22:52:27.596Z,13.90
2023-02-08T22:55:29.614Z,15.52
2023-02-08T22:58:31.721Z,11.83
2023-02-08T23:01:33.852Z,11.50
2023-02-08T23:04:38.933Z,13.75
2023-02-08T23:07:40.942Z,13.93
2023-02-08T23:10:43.673Z,13.25
2023-02-08T23:13:45.912Z,15.15
2023-02-08T23:16:47.925Z,13.88
2023-02-08T23:19:52.676Z,15.73
2023-02-08T23:22:54.893Z,14.30
2023-02-08T23:25:56.881Z,15.05
2023-02-08T23:28:58.858Z,11.13
2023-02-08T23:32:00.923Z,17.30
2023-02-08T23:35:03.018Z,16.80
2023-02-08T23:38:05.104Z,14.23
2023-02-08T23:41:08.172Z,11.95
2023-02-08T23:44:10.195Z,16.65
2023-02-08T23:47:12.156Z,8.95
2023-02-08T23:50:14.231Z,14.52
2023-02-08T23:53:16.260Z,12.75
2023-02-08T23:56:21.309Z,16.88
2023-02-08T23:59:23.314Z,15.50
